createdAt,value
2023-02-03T00:01:28.290Z,53.44
2023-02-03T00:03:56.287Z,54.15
2023-02-03T00:06:24.876Z,54.90
2023-02-03T00:08:56.510Z,55.33
2023-02-03T00:11:25.099Z,55.31
2023-02-03T00:13:53.075Z,55.96
2023-02-03T00:16:22.702Z,56.74
2023-02-03T00:18:50.711Z,56.10
2023-02-03T00:21:18.720Z,56.41
2023-02-03T00:23:46.812Z,56.10
2023-02-03T00:26:17.418Z,55.87
2023-02-03T00:28:45.771Z,56.14
2023-02-03T00:31:18.145Z,55.86
2023-02-03T00:33:47.820Z,56.02
2023-02-03T00:36:15.779Z,55.60
2023-02-03T00:38:43.788Z,56.00
2023-02-03T00:41:11.761Z,56.81
2023-02-03T00:43:39.737Z,56.50
2023-02-03T00:46:07.719Z,56.33
2023-02-03T00:48:35.787Z,56.92
2023-02-03T00:51:05.327Z,57.38
2023-02-03T00:53:33.488Z,57.29
2023-02-03T00:56:01.486Z,57.93
2023-02-03T00:58:29.561Z,57.86
2023-02-03T01:00:58.182Z,58.52
2023-02-03T01:03:26.378Z,58.63
2023-02-03T01:05:54.321Z,58.59
2023-02-03T01:08:23.762Z,59.18
2023-02-03T01:10:51.736Z,58.96
2023-02-03T01:13:19.768Z,59.36
2023-02-03T01:15:48.904Z,58.88
2023-02-03T01:18:16.946Z,58.77
2023-02-03T01:20:45.035Z,59.53
2023-02-03T01:23:12.996Z,59.16
2023-02-03T01:25:42.385Z,59.01
2023-02-03T01:28:10.491Z,58.74
2023-02-03T01:30:38.763Z,58.12
2023-02-03T01:33:07.414Z,59.16
2023-02-03T01:35:36.432Z,58.25
2023-02-03T01:38:04.398Z,59.23
2023-02-03T01:40:32.362Z,58.76
2023-02-03T01:43:01.735Z,59.10
2023-02-03T01:45:29.684Z,59.30
2023-02-03T01:48:01.220Z,59.23
2023-02-03T01:50:33.472Z,58.59
2023-02-03T01:53:04.249Z,59.22
2023-02-03T01:55:36.072Z,58.73
2023-02-03T01:58:11.525Z,59.27
2023-02-03T02:00:39.549Z,58.80
2023-02-03T02:03:09.015Z,58.97
2023-02-03T02:05:42.213Z,58.63
2023-02-03T02:08:10.774Z,58.68
2023-02-03T02:10:38.830Z,58.20
2023-02-03T02:13:11.910Z,57.26
2023-02-03T02:15:51.307Z,58.05
2023-02-03T02:18:29.880Z,57.38
2023-02-03T02:21:24.262Z,56.99
2023-02-03T02:24:20.169Z,56.35
2023-02-03T02:26:58.671Z,56.75
2023-02-03T02:30:02.030Z,56.55
2023-02-03T02:32:43.095Z,56.02
2023-02-03T02:35:19.090Z,55.97
2023-02-03T02:37:54.811Z,56.21
2023-02-03T02:40:30.665Z,56.71
2023-02-03T02:43:07.441Z,56.54
2023-02-03T02:45:42.538Z,56.60
2023-02-03T02:48:18.066Z,56.51
2023-02-03T02:50:48.209Z,56.84
2023-02-03T02:53:18.805Z,56.95
2023-02-03T02:55:48.057Z,56.82
2023-02-03T02:58:18.170Z,56.45
2023-02-03T03:00:46.929Z,56.74
2023-02-03T03:03:18.507Z,56.75
2023-02-03T03:05:52.374Z,56.53
2023-02-03T03:08:24.290Z,56.80
2023-02-03T03:10:55.004Z,56.87
2023-02-03T03:13:28.924Z,56.87
2023-02-03T03:15:59.903Z,55.89
2023-02-03T03:18:34.410Z,55.70
2023-02-03T03:21:06.445Z,56.26
2023-02-03T03:23:39.364Z,57.29
2023-02-03T03:26:13.913Z,56.65
2023-02-03T03:28:48.058Z,57.74
2023-02-03T03:31:17.291Z,56.52
2023-02-03T03:33:47.676Z,57.07
2023-02-03T03:36:23.505Z,56.49
2023-02-03T03:38:57.908Z,56.56
2023-02-03T03:41:36.595Z,56.92
2023-02-03T03:44:08.034Z,56.96
2023-02-03T03:46:42.708Z,57.27
2023-02-03T03:49:13.552Z,56.69
2023-02-03T03:51:47.573Z,57.05
2023-02-03T03:54:20.053Z,57.62
2023-02-03T03:56:56.131Z,57.22
2023-02-03T03:59:26.565Z,56.84
2023-02-03T04:01:55.176Z,56.85
2023-02-03T04:04:27.020Z,57.75
2023-02-03T04:06:55.874Z,57.58
2023-02-03T04:09:24.017Z,57.40
2023-02-03T04:12:06.022Z,58.14
2023-02-03T04:14:35.915Z,58.53
2023-02-03T04:17:03.890Z,58.27
2023-02-03T04:19:33.583Z,57.91
2023-02-03T04:22:01.550Z,58.48
2023-02-03T04:24:29.686Z,58.03
2023-02-03T04:26:57.672Z,58.25
2023-02-03T04:29:25.707Z,58.83
2023-02-03T04:31:53.853Z,59.01
2023-02-03T04:34:21.880Z,58.12
2023-02-03T04:36:51.221Z,57.94
2023-02-03T04:39:19.212Z,57.58
2023-02-03T04:41:47.165Z,58.05
2023-02-03T04:44:15.134Z,57.51
2023-02-03T04:46:43.091Z,57.60
2023-02-03T04:49:11.791Z,58.50
2023-02-03T04:51:40.041Z,59.62
2023-02-03T04:54:09.639Z,59.24
2023-02-03T04:56:37.736Z,59.95
2023-02-03T04:59:05.684Z,59.53
2023-02-03T05:01:33.656Z,59.01
2023-02-03T05:04:01.729Z,59.91
2023-02-03T05:06:32.119Z,59.67
2023-02-03T05:09:00.225Z,58.65
2023-02-03T05:11:30.112Z,59.30
2023-02-03T05:13:58.087Z,59.39
2023-02-03T05:16:26.593Z,58.61
2023-02-03T05:18:54.717Z,58.66
2023-02-03T05:21:22.744Z,59.89
2023-02-03T05:23:50.704Z,60.17
2023-02-03T05:26:18.741Z,60.18
2023-02-03T05:28:48.105Z,60.43
2023-02-03T05:31:16.278Z,60.69
2023-02-03T05:33:44.260Z,61.14
2023-02-03T05:36:12.316Z,61.19
2023-02-03T05:38:41.989Z,60.50
2023-02-03T05:41:28.358Z,61.13
2023-02-03T05:43:57.761Z,60.01
2023-02-03T05:46:25.893Z,59.93
2023-02-03T05:48:53.856Z,60.63
2023-02-03T05:51:21.928Z,60.23
2023-02-03T05:53:50.004Z,60.62
2023-02-03T05:56:18.065Z,60.30
2023-02-03T05:58:46.144Z,60.72
2023-02-03T06:01:15.515Z,61.25
2023-02-03T06:03:46.028Z,61.29
2023-02-03T06:06:14.923Z,61.09
2023-02-03T06:08:43.066Z,60.78
2023-02-03T06:11:11.885Z,60.72
2023-02-03T06:13:40.142Z,60.69
2023-02-03T06:16:08.368Z,61.14
2023-02-03T06:18:37.764Z,59.69
2023-02-03T06:21:06.126Z,60.17
2023-02-03T06:23:34.187Z,60.32
2023-02-03T06:26:02.199Z,59.50
2023-02-03T06:28:30.336Z,59.15
2023-02-03T06:30:58.378Z,58.98
2023-02-03T06:33:26.561Z,59.19
2023-02-03T06:35:56.510Z,58.57
2023-02-03T06:38:24.706Z,58.72
2023-02-03T06:40:52.915Z,58.24
2023-02-03T06:43:20.846Z,57.39
2023-02-03T06:45:48.931Z,58.23
2023-02-03T06:48:16.990Z,57.97
2023-02-03T06:50:48.537Z,57.75
2023-02-03T06:53:18.137Z,57.17
2023-02-03T06:55:47.966Z,57.22
2023-02-03T06:58:16.072Z,57.50
2023-02-03T07:00:44.055Z,57.75
2023-02-03T07:03:12.005Z,57.21
2023-02-03T07:05:40.897Z,56.91
2023-02-03T07:08:09.040Z,57.17
2023-02-03T07:10:38.435Z,57.32
2023-02-03T07:13:07.532Z,57.58
2023-02-03T07:15:35.985Z,57.16
2023-02-03T07:18:04.084Z,57.58
2023-02-03T07:20:33.053Z,57.15
2023-02-03T07:23:01.050Z,56.83
2023-02-03T07:25:29.102Z,57.72
2023-02-03T07:27:58.538Z,57.22
2023-02-03T07:30:26.890Z,57.55
2023-02-03T07:32:55.475Z,56.67
2023-02-03T07:35:23.461Z,57.00
2023-02-03T07:37:51.461Z,57.37
2023-02-03T07:40:19.735Z,56.94
2023-02-03T07:42:49.828Z,56.41
2023-02-03T07:45:20.342Z,56.50
2023-02-03T07:47:48.345Z,56.19
2023-02-03T07:50:16.570Z,56.67
2023-02-03T07:52:44.681Z,56.68
2023-02-03T07:55:12.679Z,56.98
2023-02-03T07:57:43.660Z,56.57
2023-02-03T08:00:14.331Z,56.54
2023-02-03T08:02:44.608Z,56.80
2023-02-03T08:05:13.713Z,56.79
2023-02-03T08:07:42.336Z,56.15
2023-02-03T08:10:13.276Z,56.26
2023-02-03T08:12:45.114Z,56.86
2023-02-03T08:15:14.122Z,57.13
2023-02-03T08:17:44.623Z,57.19
2023-02-03T08:20:13.751Z,56.98
2023-02-03T08:22:41.769Z,56.25
2023-02-03T08:25:10.430Z,56.71
2023-02-03T08:27:38.846Z,57.06
2023-02-03T08:30:08.624Z,56.32
2023-02-03T08:32:36.866Z,56.31
2023-02-03T08:35:07.173Z,56.68
2023-02-03T08:37:35.172Z,57.14
2023-02-03T08:40:03.286Z,57.17
2023-02-03T08:42:31.338Z,57.05
2023-02-03T08:44:59.688Z,56.78
2023-02-03T08:47:27.954Z,56.86
2023-02-03T08:49:55.987Z,56.73
2023-02-03T08:52:25.620Z,55.93
2023-02-03T08:54:53.742Z,56.21
2023-02-03T08:57:21.859Z,55.92
2023-02-03T08:59:51.248Z,55.91
2023-02-03T09:02:20.843Z,55.30
2023-02-03T09:04:50.092Z,55.28
2023-02-03T09:07:18.095Z,55.48
2023-02-03T09:09:47.723Z,55.86
2023-02-03T09:12:16.182Z,55.83
2023-02-03T09:14:44.552Z,56.04
2023-02-03T09:17:12.911Z,55.65
2023-02-03T09:19:41.034Z,56.20
2023-02-03T09:22:09.318Z,55.66
2023-02-03T09:24:37.662Z,55.72
2023-02-03T09:27:07.260Z,55.63
2023-02-03T09:29:35.490Z,55.56
2023-02-03T09:32:09.022Z,55.64
2023-02-03T09:34:37.231Z,55.39
2023-02-03T09:37:05.452Z,55.54
2023-02-03T09:39:33.489Z,55.40
2023-02-03T09:42:52.161Z,55.36
2023-02-03T09:45:25.794Z,55.28
2023-02-03T09:47:55.653Z,54.96
2023-02-03T09:50:26.691Z,55.10
2023-02-03T09:52:56.859Z,54.84
2023-02-03T09:55:35.179Z,54.79
2023-02-03T09:58:09.371Z,54.79
2023-02-03T10:00:41.192Z,54.46
2023-02-03T10:03:19.192Z,54.63
2023-02-03T10:06:04.626Z,54.60
2023-02-03T10:08:45.117Z,54.54
2023-02-03T10:11:28.250Z,54.36
2023-02-03T10:14:14.070Z,54.45
2023-02-03T10:16:56.090Z,54.43
2023-02-03T10:19:28.808Z,54.57
2023-02-03T10:22:00.124Z,54.27
2023-02-03T10:24:39.542Z,54.38
2023-02-03T10:27:15.072Z,54.25
2023-02-03T10:29:44.840Z,54.66
2023-02-03T10:32:14.132Z,54.29
2023-02-03T10:34:46.098Z,54.24
2023-02-03T10:37:23.632Z,54.42
2023-02-03T10:39:57.002Z,54.44
2023-02-03T10:42:25.118Z,54.32
2023-02-03T10:44:58.601Z,54.18
2023-02-03T10:47:34.330Z,54.11
2023-02-03T10:50:07.557Z,54.16
2023-02-03T10:52:37.593Z,53.87
2023-02-03T10:55:07.353Z,53.87
2023-02-03T10:57:39.286Z,53.35
2023-02-03T11:00:23.785Z,53.28
2023-02-03T11:03:06.806Z,53.52
2023-02-03T11:05:35.221Z,53.51
2023-02-03T11:08:03.721Z,53.92
2023-02-03T11:10:35.987Z,52.73
2023-02-03T11:13:19.372Z,52.25
2023-02-03T11:15:56.552Z,51.66
2023-02-03T11:18:46.075Z,50.61
2023-02-03T11:21:19.121Z,50.87
2023-02-03T11:23:55.864Z,49.93
2023-02-03T11:26:27.733Z,49.62
2023-02-03T11:28:59.492Z,49.20
2023-02-03T11:31:31.395Z,48.87
2023-02-03T11:34:02.053Z,48.27
2023-02-03T11:36:32.590Z,48.37
2023-02-03T11:39:19.967Z,47.56
2023-02-03T11:41:48.906Z,47.58
2023-02-03T11:44:20.869Z,47.20
2023-02-03T11:46:54.337Z,47.18
2023-02-03T11:49:50.884Z,46.87
2023-02-03T11:52:37.697Z,46.88
2023-02-03T11:55:17.591Z,47.03
2023-02-03T11:57:54.383Z,47.06
2023-02-03T12:00:33.664Z,47.13
2023-02-03T12:03:19.634Z,46.99
2023-02-03T12:06:03.223Z,47.23
2023-02-03T12:08:47.485Z,47.07
2023-02-03T12:11:25.820Z,46.79
2023-02-03T12:14:07.907Z,46.63
2023-02-03T12:16:57.248Z,46.73
2023-02-03T12:19:40.855Z,47.00
2023-02-03T12:22:17.506Z,46.98
2023-02-03T12:24:56.219Z,46.75
2023-02-03T12:27:36.028Z,46.50
2023-02-03T12:30:10.893Z,46.83
2023-02-03T12:32:46.446Z,46.80
2023-02-03T12:35:21.995Z,46.82
2023-02-03T12:37:56.306Z,46.96
2023-02-03T12:40:36.195Z,46.98
2023-02-03T12:43:19.302Z,46.91
2023-02-03T12:45:54.318Z,46.57
2023-02-03T12:48:27.350Z,46.46
2023-02-03T12:51:01.916Z,46.90
2023-02-03T12:53:35.091Z,46.79
2023-02-03T12:56:07.863Z,46.60
2023-02-03T12:58:40.974Z,46.63
2023-02-03T13:01:15.900Z,46.88
2023-02-03T13:03:50.161Z,46.13
2023-02-03T13:06:27.113Z,46.45
2023-02-03T13:09:02.106Z,46.21
2023-02-03T13:11:35.132Z,46.05
2023-02-03T13:14:09.498Z,46.45
2023-02-03T13:16:41.414Z,46.62
2023-02-03T13:19:18.125Z,46.26
2023-02-03T13:21:49.561Z,46.05
2023-02-03T13:24:18.364Z,46.05
2023-02-03T13:27:11.099Z,46.00
2023-02-03T13:30:06.198Z,45.66
2023-02-03T13:32:55.458Z,45.93
2023-02-03T13:35:39.511Z,45.84
2023-02-03T13:38:38.794Z,46.31
2023-02-03T13:41:12.550Z,45.96
2023-02-03T13:43:46.624Z,45.95
2023-02-03T13:46:23.119Z,45.75
2023-02-03T13:48:52.451Z,46.17
2023-02-03T13:51:24.127Z,45.90
2023-02-03T13:54:01.588Z,45.87
2023-02-03T13:56:30.041Z,45.66
2023-02-03T13:59:04.038Z,45.67
2023-02-03T14:01:35.935Z,45.28
2023-02-03T14:04:05.908Z,45.50
2023-02-03T14:07:00.019Z,45.26
2023-02-03T14:09:43.152Z,45.26
2023-02-03T14:12:20.807Z,45.15
2023-02-03T14:15:04.761Z,45.28
2023-02-03T14:18:02.466Z,44.98
2023-02-03T14:21:21.071Z,45.04
2023-02-03T14:24:00.000Z,45.04
2023-02-03T14:26:42.891Z,44.57
2023-02-03T14:29:24.285Z,44.55
2023-02-03T14:31:59.265Z,44.50
2023-02-03T14:34:36.577Z,44.58
2023-02-03T14:37:26.710Z,44.13
2023-02-03T14:40:11.568Z,44.23
2023-02-03T14:43:18.190Z,44.04
2023-02-03T14:46:13.965Z,44.12
2023-02-03T14:49:18.793Z,44.13
2023-02-03T14:52:05.773Z,43.99
2023-02-03T14:54:59.316Z,44.07
2023-02-03T14:57:39.627Z,43.85
2023-02-03T15:00:27.547Z,44.08
2023-02-03T15:03:27.985Z,43.96
2023-02-03T15:05:58.451Z,44.02
2023-02-03T15:08:42.432Z,43.75
2023-02-03T15:11:32.508Z,43.76
2023-02-03T15:14:19.966Z,43.21
2023-02-03T15:16:54.419Z,43.90
2023-02-03T15:19:25.496Z,43.39
2023-02-03T15:21:53.880Z,43.38
2023-02-03T15:24:24.290Z,43.45
2023-02-03T15:26:54.006Z,42.93
2023-02-03T15:29:27.129Z,43.73
2023-02-03T15:32:06.421Z,43.57
2023-02-03T15:34:40.584Z,43.72
2023-02-03T15:37:15.465Z,43.86
2023-02-03T15:39:53.989Z,44.31
2023-02-03T15:42:28.598Z,44.02
2023-02-03T15:45:02.362Z,44.27
2023-02-03T15:47:35.770Z,44.46
2023-02-03T15:50:16.918Z,44.18
2023-02-03T15:52:46.914Z,44.55
2023-02-03T15:55:21.682Z,44.56
2023-02-03T15:57:51.665Z,44.55
2023-02-03T16:00:32.118Z,44.97
2023-02-03T16:03:03.554Z,44.38
2023-02-03T16:05:33.685Z,44.76
2023-02-03T16:08:34.985Z,44.55
2023-02-03T16:11:03.278Z,44.79
2023-02-03T16:13:33.352Z,44.74
2023-02-03T16:16:08.291Z,44.61
2023-02-03T16:18:38.360Z,45.09
2023-02-03T16:21:07.164Z,44.90
2023-02-03T16:23:35.239Z,44.65
2023-02-03T16:26:09.024Z,44.89
2023-02-03T16:28:54.304Z,44.58
2023-02-03T16:31:40.335Z,44.90
2023-02-03T16:34:33.383Z,45.18
2023-02-03T16:37:19.457Z,44.66
2023-02-03T16:40:04.892Z,44.99
2023-02-03T16:42:57.472Z,45.08
2023-02-03T16:45:43.547Z,44.88
2023-02-03T16:48:30.564Z,45.24
2023-02-03T16:51:16.035Z,45.53
2023-02-03T16:53:45.609Z,45.71
2023-02-03T16:56:14.396Z,45.03
2023-02-03T16:58:42.508Z,45.15
2023-02-03T17:01:11.891Z,45.56
2023-02-03T17:03:40.273Z,45.77
2023-02-03T17:06:11.638Z,45.62
2023-02-03T17:08:41.252Z,45.69
2023-02-03T17:11:12.715Z,45.95
2023-02-03T17:13:40.740Z,45.11
2023-02-03T17:16:11.614Z,45.96
2023-02-03T17:18:40.576Z,45.63
2023-02-03T17:21:12.558Z,46.02
2023-02-03T17:23:41.224Z,45.37
2023-02-03T17:26:09.517Z,45.48
2023-02-03T17:28:39.879Z,46.08
2023-02-03T17:31:08.788Z,46.42
2023-02-03T17:33:36.964Z,46.54
2023-02-03T17:36:07.544Z,46.21
2023-02-03T17:55:17.032Z,47.33
2023-02-03T17:57:44.994Z,46.37
2023-02-03T18:00:13.816Z,46.44
2023-02-03T18:02:42.679Z,47.23
2023-02-03T18:05:11.017Z,47.17
2023-02-03T18:07:39.026Z,46.91
2023-02-03T18:10:07.432Z,46.75
2023-02-03T18:12:36.821Z,46.71
2023-02-03T18:15:05.082Z,46.68
2023-02-03T18:17:33.082Z,47.10
2023-02-03T18:20:02.544Z,47.27
2023-02-03T18:22:30.634Z,47.66
2023-02-03T18:24:58.824Z,47.80
2023-02-03T18:27:26.863Z,47.93
2023-02-03T18:29:56.315Z,47.68
2023-02-03T18:32:24.296Z,46.97
2023-02-03T18:34:52.613Z,47.96
2023-02-03T18:37:20.614Z,47.36
2023-02-03T18:39:49.222Z,47.72
2023-02-03T18:42:17.354Z,47.20
2023-02-03T18:44:45.378Z,47.49
2023-02-03T18:47:14.772Z,46.98
2023-02-03T18:49:42.869Z,47.37
2023-02-03T18:52:10.945Z,48.18
2023-02-03T18:54:39.003Z,47.52
2023-02-03T18:57:06.950Z,47.69
2023-02-03T18:59:35.160Z,48.09
2023-02-03T19:02:03.227Z,47.65
2023-02-03T19:04:32.823Z,47.00
2023-02-03T19:07:01.068Z,47.45
2023-02-03T19:09:29.115Z,48.18
2023-02-03T19:11:58.876Z,48.35
2023-02-03T19:14:28.458Z,47.72
2023-02-03T19:16:56.544Z,47.88
2023-02-03T19:19:24.580Z,47.88
2023-02-03T19:21:54.018Z,47.38
2023-02-03T19:24:22.036Z,46.99
2023-02-03T19:26:50.067Z,47.11
2023-02-03T19:29:18.221Z,47.17
2023-02-03T19:31:46.397Z,47.06
2023-02-03T19:34:15.979Z,48.12
2023-02-03T19:36:44.270Z,47.51
2023-02-03T19:39:13.893Z,47.06
2023-02-03T19:41:42.199Z,47.54
2023-02-03T19:44:10.309Z,47.88
2023-02-03T19:46:38.907Z,47.48
2023-02-03T19:49:10.998Z,48.35
2023-02-03T19:51:39.462Z,47.98
2023-02-03T19:54:07.592Z,48.70
2023-02-03T19:56:36.954Z,48.49
2023-02-03T19:59:05.383Z,48.45
2023-02-03T20:01:33.688Z,48.48
2023-02-03T20:04:02.022Z,47.82
2023-02-03T20:06:31.680Z,48.37
2023-02-03T20:09:00.282Z,48.62
2023-02-03T20:11:29.216Z,47.62
2023-02-03T20:13:58.665Z,48.18
2023-02-03T20:16:26.717Z,48.77
2023-02-03T20:18:54.752Z,48.80
2023-02-03T20:21:22.798Z,48.76
2023-02-03T20:23:50.862Z,49.04
2023-02-03T20:26:18.959Z,48.19
2023-02-03T20:28:47.631Z,48.61
2023-02-03T20:31:17.152Z,49.61
2023-02-03T20:33:45.228Z,49.08
2023-02-03T20:36:13.481Z,48.85
2023-02-03T20:38:41.444Z,49.83
2023-02-03T20:41:12.469Z,49.09
2023-02-03T20:43:40.478Z,49.45
2023-02-03T20:46:12.041Z,49.16
2023-02-03T20:48:41.735Z,49.27
2023-02-03T20:51:12.712Z,49.06
2023-02-03T20:53:41.526Z,48.65
2023-02-03T20:56:14.914Z,48.71
2023-02-03T20:58:44.370Z,49.09
2023-02-03T21:01:15.649Z,49.25
2023-02-03T21:04:02.729Z,48.55
2023-02-03T21:06:32.368Z,48.46
2023-02-03T21:09:09.328Z,47.93
2023-02-03T21:11:37.431Z,48.49
2023-02-03T21:14:17.478Z,48.18
2023-02-03T21:16:47.728Z,49.28
2023-02-03T21:19:26.991Z,48.94
2023-02-03T21:21:55.038Z,50.51
2023-02-03T21:24:29.156Z,50.95
2023-02-03T21:26:57.672Z,50.96
2023-02-03T21:29:27.811Z,51.56
2023-02-03T21:31:56.416Z,51.62
2023-02-03T21:34:31.798Z,51.87
2023-02-03T21:37:15.461Z,52.01
2023-02-03T21:39:43.488Z,51.84
2023-02-03T21:42:42.719Z,50.96
2023-02-03T21:45:36.794Z,51.65
2023-02-03T21:48:28.335Z,50.29
2023-02-03T21:51:00.872Z,50.68
2023-02-03T21:53:35.217Z,49.98
2023-02-03T21:56:18.207Z,50.58
2023-02-03T21:58:48.714Z,49.65
2023-02-03T22:01:20.189Z,50.96
2023-02-03T22:03:51.479Z,50.37
2023-02-03T22:06:27.090Z,50.79
2023-02-03T22:08:56.482Z,50.30
2023-02-03T22:11:26.251Z,51.19
2023-02-03T22:13:54.354Z,50.28
2023-02-03T22:16:22.727Z,50.61
2023-02-03T22:18:54.009Z,50.67
2023-02-03T22:21:22.498Z,50.36
2023-02-03T22:23:51.930Z,50.56
2023-02-03T22:26:20.646Z,50.45
2023-02-03T22:28:48.622Z,50.37
2023-02-03T22:31:16.754Z,50.74
2023-02-03T22:33:45.314Z,50.74
2023-02-03T22:36:14.526Z,50.55
2023-02-03T22:38:43.533Z,50.98
2023-02-03T22:41:13.384Z,51.75
2023-02-03T22:43:41.869Z,51.93
2023-02-03T22:46:10.251Z,51.43
2023-02-03T22:48:38.343Z,51.98
2023-02-03T22:51:06.478Z,51.61
2023-02-03T22:53:34.891Z,51.94
2023-02-03T22:56:03.250Z,51.93
2023-02-03T22:58:32.686Z,52.59
2023-02-03T23:01:00.692Z,52.84
2023-02-03T23:03:32.150Z,53.51
2023-02-03T23:06:00.477Z,53.67
2023-02-03T23:08:28.605Z,53.56
2023-02-03T23:10:57.067Z,53.78
2023-02-03T23:13:25.110Z,53.70
2023-02-03T23:15:54.725Z,53.82
2023-02-03T23:18:22.789Z,53.60
2023-02-03T23:20:50.768Z,53.59
2023-02-03T23:23:18.744Z,52.92
2023-02-03T23:25:46.754Z,52.44
2023-02-03T23:28:14.750Z,52.26
2023-02-03T23:30:42.821Z,53.07
2023-02-03T23:33:12.330Z,52.95
2023-02-03T23:35:45.469Z,53.10
2023-02-03T23:38:13.622Z,52.73
2023-02-03T23:40:41.684Z,52.82
2023-02-03T23:43:09.772Z,52.94
2023-02-03T23:45:37.729Z,52.14
2023-02-03T23:48:06.292Z,51.72
2023-02-03T23:50:35.690Z,51.85
2023-02-03T23:53:03.689Z,52.08
2023-02-03T23:55:31.908Z,51.77
2023-02-03T23:57:59.974Z,52.32
